Sun Excelsior — 3EUF9 — position and weather

sailwx.info

Track history (hours):
 
Tides and Currents Weather Stations Pressure Air Temp Water Temp Dewpoint Dewpoint Depression Visibility Wind Speed Wind Dir Waves Ship Positions

Sun Excelsior

Last reported at 2018-Mar-29 12:11 UTC. Time now 2018-Jun-22 03:07 UTC.
Position N 12°52' E 069°09'.
Warning: this ship's position is months out of date.

Length 224 m; draft 7.1 m.

Type: Cargo ship. MMSI: 370737000.

Date/timePositionNaut miles runAvg speedWind from/ knotsBaromVisibWave heightAir tempDewpointWater temp
2018-Mar-29 12:11N 12°52' E 069°09'314.2
2018-Mar-29 11:56N 12°55' E 069°10'614.0
2018-Mar-29 11:30N 13°01' E 069°12'713.7
2018-Mar-29 10:59N 13°08' E 069°13'713.6
2018-Mar-29 10:30N 13°15' E 069°15'713.9
2018-Mar-29 09:58N 13°22' E 069°16'713.8
2018-Mar-29 09:29N 13°28' E 069°18'713.6
2018-Mar-29 08:58N 13°35' E 069°19'1213.7
2018-Mar-29 08:05N 13°47' E 069°22'113.7
2018-Mar-29 08:00N 13°48' E 069°22'813.7
2018-Mar-29 07:24N 13°56' E 069°24'1213.5
2018-Mar-29 06:30N 14°08' E 069°27'2313.6
2018-Mar-29 04:48N 14°31' E 069°32'414.0
2018-Mar-29 04:31N 14°35' E 069°33'814.0
2018-Mar-29 03:57N 14°42' E 069°35'614.2
2018-Mar-29 03:30N 14°48' E 069°36'714.2
2018-Mar-29 03:00N 14°55' E 069°38'714.3
2018-Mar-29 02:30N 15°02' E 069°39'1014.2
2018-Mar-29 01:48N 15°12' E 069°42'414.1
2018-Mar-29 01:30N 15°16' E 069°43'714.1
2018-Mar-29 01:00N 15°23' E 069°44'914.4
2018-Mar-29 00:22N 15°32' E 069°46'614.6
2018-Mar-28 23:59N 15°37' E 069°47'714.7
2018-Mar-28 23:29N 15°45' E 069°49'714.7
2018-Mar-28 23:00N 15°51' E 069°51'714.8
2018-Mar-28 22:30N 15°59' E 069°52'914.6
2018-Mar-28 21:54N 16°07' E 069°54'614.5
2018-Mar-28 21:30N 16°13' E 069°55'1214.4
2018-Mar-28 20:40N 16°25' E 069°58'214.3
2018-Mar-28 20:30N 16°27' E 069°59'814.4
2018-Mar-28 19:58N 16°34' E 070°00'714.5
2018-Mar-28 19:30N 16°41' E 070°02'714.7
2018-Mar-28 19:00N 16°48' E 070°04'714.8
2018-Mar-28 18:30N 16°55' E 070°05'714.9
2018-Mar-28 18:00N 17°03' E 070°07'714.6
2018-Mar-28 17:30N 17°10' E 070°09'714.4
2018-Mar-28 17:00N 17°17' E 070°10'714.2
2018-Mar-28 16:30N 17°24' E 070°12'714.2
2018-Mar-28 16:00N 17°31' E 070°14'714.1
2018-Mar-28 15:30N 17°38' E 070°15'814.0
2018-Mar-28 14:57N 17°45' E 070°17'2214.0
2018-Mar-28 13:24N 18°06' E 070°22'614.3
2018-Mar-28 13:00N 18°12' E 070°23'814.2
2018-Mar-28 12:28N 18°19' E 070°25'914.2
2018-Mar-28 11:50N 18°28' E 070°27'514.4
2018-Mar-28 11:29N 18°33' E 070°28'814.4
2018-Mar-28 10:56N 18°41' E 070°28'814.2
2018-Mar-28 10:24N 18°49' E 070°29'614.5
2018-Mar-28 09:58N 18°55' E 070°30'715.0
2018-Mar-28 09:28N 19°02' E 070°31'714.2
2018-Mar-28 08:59N 19°08' E 070°34'714.6
2018-Mar-28 08:30N 19°15' E 070°38'714.8
2018-Mar-28 08:00N 19°22' E 070°40'814.8
2018-Mar-28 07:29N 19°29' E 070°41'714.7
2018-Mar-28 07:00N 19°36' E 070°43'714.6
2018-Mar-28 06:30N 19°43' E 070°45'714.3
2018-Mar-28 06:00N 19°50' E 070°46'914.2
2018-Mar-28 05:23N 19°59' E 070°49'814.1
2018-Mar-28 04:50N 20°06' E 070°51'514.1
2018-Mar-28 04:30N 20°11' E 070°52'714.1
2018-Mar-28 04:00N 20°18' E 070°53'713.8
2018-Mar-28 03:30N 20°24' E 070°56'611.5
2018-Mar-28 03:00N 20°27' E 071°01'611.3
2018-Mar-28 02:29N 20°28' E 071°07'613.0
2018-Mar-28 02:01N 20°33' E 071°11'714.0
2018-Mar-28 01:30N 20°37' E 071°17'714.5
2018-Mar-28 01:00N 20°40' E 071°24'815.3
2018-Mar-28 00:30N 20°45' E 071°31'816.3
2018-Mar-28 00:00N 20°49' E 071°38'816.7
2018-Mar-27 23:30N 20°53' E 071°46'916.9
2018-Mar-27 23:00N 20°58' E 071°53'916.9
2018-Mar-27 22:30N 21°03' E 072°01'815.9
2018-Mar-27 22:00N 21°08' E 072°07'815.3
2018-Mar-27 21:30N 21°13' E 072°13'713.9
2018-Mar-27 21:00N 21°18' E 072°18'612.7
2018-Mar-27 20:30N 21°24' E 072°21'612.0
2018-Mar-27 19:58N 21°30' E 072°24'511.2
2018-Mar-27 19:30N 21°34' E 072°27'5 9.2
2018-Mar-27 19:00N 21°39' E 072°28'3 6.3
2018-Mar-27 18:30N 21°41' E 072°31'0 0.0
2018-Mar-27 17:50N 21°41' E 072°31'0 0.0
2018-Mar-27 17:26N 21°41' E 072°31'0 0.0
2018-Mar-27 16:50N 21°41' E 072°31'0 0.0
2018-Mar-27 16:26N 21°41' E 072°31'0 0.0
2018-Mar-27 15:56N 21°41' E 072°31'0 0.0
2018-Mar-27 15:26N 21°41' E 072°31'0 0.0
2018-Mar-27 07:20N 21°41' E 072°31'0 0.0
2018-Mar-27 06:56N 21°41' E 072°31'0 0.0
2018-Mar-27 06:26N 21°41' E 072°31'0 0.0
2018-Mar-27 05:44N 21°41' E 072°31'0 0.0
2018-Mar-27 05:20N 21°41' E 072°31'0 0.0
2018-Mar-27 04:56N 21°41' E 072°31'0 0.0
2018-Mar-27 04:26N 21°41' E 072°31'0 0.0
2018-Mar-27 03:50N 21°41' E 072°31'0 0.0
2018-Mar-27 03:26N 21°41' E 072°31'0 0.0
2018-Mar-27 02:56N 21°41' E 072°31'0 0.0
2018-Mar-27 02:26N 21°41' E 072°31'0 0.0
2018-Mar-27 01:56N 21°41' E 072°31'0 0.0
2018-Mar-27 01:26N 21°41' E 072°31'0 0.0
2018-Mar-27 00:56N 21°41' E 072°31'0 0.0
2018-Mar-27 00:26N 21°41' E 072°31'0 0.0
2018-Mar-26 23:44N 21°41' E 072°31'0 0.0
2018-Mar-26 23:14N 21°41' E 072°31'0 0.0
2018-Mar-26 22:56N 21°41' E 072°31'0 0.0
2018-Mar-26 21:08N 21°41' E 072°31'0 0.0
2018-Mar-26 20:56N 21°41' E 072°31'0 0.0
2018-Mar-26 20:26N 21°41' E 072°31'0 0.0
2018-Mar-26 19:44N 21°41' E 072°31'0 0.0
2018-Mar-26 19:20N 21°41' E 072°31'0 0.0
2018-Mar-26 06:44N 21°41' E 072°31'0 0.0
2018-Mar-26 03:50N 21°41' E 072°31'0 0.0
2018-Mar-25 15:14N 21°41' E 072°31'0 0.0
2018-Mar-25 14:44N 21°41' E 072°31'0 0.0
2018-Mar-25 14:14N 21°41' E 072°31'0 0.0
2018-Mar-25 13:50N 21°41' E 072°31'0 0.0
2018-Mar-25 13:08N 21°41' E 072°31'0 0.0
2018-Mar-25 12:56N 21°41' E 072°31'0 0.0
2018-Mar-25 12:26N 21°41' E 072°31'0 0.0
2018-Mar-25 11:56N 21°41' E 072°31'0 0.0
2018-Mar-25 11:20N 21°41' E 072°31'0 0.0
2018-Mar-25 10:56N 21°41' E 072°31'0 0.0
2018-Mar-25 09:56N 21°41' E 072°31'0 0.0
2018-Mar-25 08:20N 21°41' E 072°31'0 0.0
2018-Mar-25 04:02N 21°41' E 072°31'0 0.2
2018-Mar-25 04:00N 21°41' E 072°31'0 0.7
2018-Mar-25 03:30N 21°41' E 072°30'1 2.7
2018-Mar-25 03:00N 21°41' E 072°29'5 8.9
2018-Mar-25 02:29N 21°37' E 072°28'3 6.7
2018-Mar-25 02:00N 21°34' E 072°27'3 6.6
2018-Mar-25 01:31N 21°30' E 072°26'4 7.7
2018-Mar-25 00:59N 21°26' E 072°26'5 9.9
2018-Mar-25 00:30N 21°23' E 072°22'4 8.2
2018-Mar-25 00:00N 21°20' E 072°20'510.1
2018-Mar-24 23:30N 21°15' E 072°18'510.2
2018-Mar-24 23:00N 21°10' E 072°16'4 9.0
2018-Mar-24 22:30N 21°06' E 072°13'5 8.9
2018-Mar-24 22:00N 21°02' E 072°11'5 9.5
2018-Mar-24 21:30N 20°58' E 072°09'5 9.5
2018-Mar-24 20:58N 20°53' E 072°08'4 9.6
2018-Mar-24 20:30N 20°49' E 072°07'510.0
2018-Mar-24 20:01N 20°45' E 072°04'5 9.9
2018-Mar-24 19:30N 20°40' E 072°01'5 9.8
2018-Mar-24 19:00N 20°36' E 071°58'510.1
2018-Mar-24 18:30N 20°34' E 071°53'510.4
2018-Mar-24 18:01N 20°32' E 071°48'610.8
2018-Mar-24 17:30N 20°31' E 071°42'15 9.6
2018-Mar-24 15:53N 20°16' E 071°37'512.2
2018-Mar-24 15:30N 20°12' E 071°37'510.2
2018-Mar-24 15:00N 20°08' E 071°41'612.0
2018-Mar-24 14:31N 20°06' E 071°47'611.6
2018-Mar-24 14:00N 20°04' E 071°53'611.6
2018-Mar-24 13:30N 20°03' E 071°59'611.7
2018-Mar-24 13:00N 20°01' E 072°05'611.5
2018-Mar-24 12:30N 19°59' E 072°11'611.4
2018-Mar-24 11:59N 19°57' E 072°17'511.4
2018-Mar-24 11:30N 19°53' E 072°21'714.2
2018-Mar-24 11:00N 19°46' E 072°22'714.0
2018-Mar-24 10:30N 19°39' E 072°23'713.8
2018-Mar-24 09:58N 19°32' E 072°24'613.7
2018-Mar-24 09:30N 19°26' E 072°25'713.4
2018-Mar-24 09:00N 19°19' E 072°27'713.1
2018-Mar-24 08:26N 19°12' E 072°28'612.9
2018-Mar-24 08:00N 19°07' E 072°29'712.8
2018-Mar-24 07:30N 19°00' E 072°31'712.6
2018-Mar-24 06:58N 18°54' E 072°33'1510.8
2018-Mar-24 05:35N 18°39' E 072°32'112.3
2018-Mar-24 05:30N 18°38' E 072°31'612.3
2018-Mar-24 05:00N 18°32' E 072°30'712.1
2018-Mar-24 04:28N 18°25' E 072°31'712.1
2018-Mar-24 03:52N 18°18' E 072°33'512.2
2018-Mar-24 03:30N 18°14' E 072°34'2812.2
2018-Mar-24 01:09N 17°46' E 072°38'212.2
2018-Mar-24 00:59N 17°44' E 072°39'611.8
2018-Mar-24 00:30N 17°38' E 072°40'2512.3
2018-Mar-23 22:26N 17°14' E 072°47'  
Track history (hours):
 
Tides and Currents Weather Stations Pressure Air Temp Water Temp Dewpoint Dewpoint Depression Visibility Wind Speed Wind Dir Waves Ship Positions

Sun Excelsior

Last reported at 2018-Mar-29 12:11 UTC. Time now 2018-Jun-22 03:07 UTC.
Position N 12°52' E 069°09'.
Warning: this ship's position is months out of date.

Length 224 m; draft 7.1 m.

Type: Cargo ship. MMSI: 370737000.

Date/timePositionNaut miles runAvg speedWind from/ knotsBaromVisibWave heightAir tempDewpointWater temp
2018-Mar-29 12:11N 12°52' E 069°09'314.2
2018-Mar-29 11:56N 12°55' E 069°10'614.0
2018-Mar-29 11:30N 13°01' E 069°12'713.7
2018-Mar-29 10:59N 13°08' E 069°13'713.6
2018-Mar-29 10:30N 13°15' E 069°15'713.9
2018-Mar-29 09:58N 13°22' E 069°16'713.8
2018-Mar-29 09:29N 13°28' E 069°18'713.6
2018-Mar-29 08:58N 13°35' E 069°19'1213.7
2018-Mar-29 08:05N 13°47' E 069°22'113.7
2018-Mar-29 08:00N 13°48' E 069°22'813.7
2018-Mar-29 07:24N 13°56' E 069°24'1213.5
2018-Mar-29 06:30N 14°08' E 069°27'2313.6
2018-Mar-29 04:48N 14°31' E 069°32'414.0
2018-Mar-29 04:31N 14°35' E 069°33'814.0
2018-Mar-29 03:57N 14°42' E 069°35'614.2
2018-Mar-29 03:30N 14°48' E 069°36'714.2
2018-Mar-29 03:00N 14°55' E 069°38'714.3
2018-Mar-29 02:30N 15°02' E 069°39'1014.2
2018-Mar-29 01:48N 15°12' E 069°42'414.1
2018-Mar-29 01:30N 15°16' E 069°43'714.1
2018-Mar-29 01:00N 15°23' E 069°44'914.4
2018-Mar-29 00:22N 15°32' E 069°46'614.6
2018-Mar-28 23:59N 15°37' E 069°47'714.7
2018-Mar-28 23:29N 15°45' E 069°49'714.7
2018-Mar-28 23:00N 15°51' E 069°51'714.8
2018-Mar-28 22:30N 15°59' E 069°52'914.6
2018-Mar-28 21:54N 16°07' E 069°54'614.5
2018-Mar-28 21:30N 16°13' E 069°55'1214.4
2018-Mar-28 20:40N 16°25' E 069°58'214.3
2018-Mar-28 20:30N 16°27' E 069°59'814.4
2018-Mar-28 19:58N 16°34' E 070°00'714.5
2018-Mar-28 19:30N 16°41' E 070°02'714.7
2018-Mar-28 19:00N 16°48' E 070°04'714.8
2018-Mar-28 18:30N 16°55' E 070°05'714.9
2018-Mar-28 18:00N 17°03' E 070°07'714.6
2018-Mar-28 17:30N 17°10' E 070°09'714.4
2018-Mar-28 17:00N 17°17' E 070°10'714.2
2018-Mar-28 16:30N 17°24' E 070°12'714.2
2018-Mar-28 16:00N 17°31' E 070°14'714.1
2018-Mar-28 15:30N 17°38' E 070°15'814.0
2018-Mar-28 14:57N 17°45' E 070°17'2214.0
2018-Mar-28 13:24N 18°06' E 070°22'614.3
2018-Mar-28 13:00N 18°12' E 070°23'814.2
2018-Mar-28 12:28N 18°19' E 070°25'914.2
2018-Mar-28 11:50N 18°28' E 070°27'514.4
2018-Mar-28 11:29N 18°33' E 070°28'814.4
2018-Mar-28 10:56N 18°41' E 070°28'814.2
2018-Mar-28 10:24N 18°49' E 070°29'614.5
2018-Mar-28 09:58N 18°55' E 070°30'715.0
2018-Mar-28 09:28N 19°02' E 070°31'714.2
2018-Mar-28 08:59N 19°08' E 070°34'714.6
2018-Mar-28 08:30N 19°15' E 070°38'714.8
2018-Mar-28 08:00N 19°22' E 070°40'814.8
2018-Mar-28 07:29N 19°29' E 070°41'714.7
2018-Mar-28 07:00N 19°36' E 070°43'714.6
2018-Mar-28 06:30N 19°43' E 070°45'714.3
2018-Mar-28 06:00N 19°50' E 070°46'914.2
2018-Mar-28 05:23N 19°59' E 070°49'814.1
2018-Mar-28 04:50N 20°06' E 070°51'514.1
2018-Mar-28 04:30N 20°11' E 070°52'714.1
2018-Mar-28 04:00N 20°18' E 070°53'713.8
2018-Mar-28 03:30N 20°24' E 070°56'611.5
2018-Mar-28 03:00N 20°27' E 071°01'611.3
2018-Mar-28 02:29N 20°28' E 071°07'613.0
2018-Mar-28 02:01N 20°33' E 071°11'714.0
2018-Mar-28 01:30N 20°37' E 071°17'714.5
2018-Mar-28 01:00N 20°40' E 071°24'815.3
2018-Mar-28 00:30N 20°45' E 071°31'816.3
2018-Mar-28 00:00N 20°49' E 071°38'816.7
2018-Mar-27 23:30N 20°53' E 071°46'916.9
2018-Mar-27 23:00N 20°58' E 071°53'916.9
2018-Mar-27 22:30N 21°03' E 072°01'815.9
2018-Mar-27 22:00N 21°08' E 072°07'815.3
2018-Mar-27 21:30N 21°13' E 072°13'713.9
2018-Mar-27 21:00N 21°18' E 072°18'612.7
2018-Mar-27 20:30N 21°24' E 072°21'612.0
2018-Mar-27 19:58N 21°30' E 072°24'511.2
2018-Mar-27 19:30N 21°34' E 072°27'5 9.2
2018-Mar-27 19:00N 21°39' E 072°28'3 6.3
2018-Mar-27 18:30N 21°41' E 072°31'0 0.0
2018-Mar-27 17:50N 21°41' E 072°31'0 0.0
2018-Mar-27 17:26N 21°41' E 072°31'0 0.0
2018-Mar-27 16:50N 21°41' E 072°31'0 0.0
2018-Mar-27 16:26N 21°41' E 072°31'0 0.0
2018-Mar-27 15:56N 21°41' E 072°31'0 0.0
2018-Mar-27 15:26N 21°41' E 072°31'0 0.0
2018-Mar-27 07:20N 21°41' E 072°31'0 0.0
2018-Mar-27 06:56N 21°41' E 072°31'0 0.0
2018-Mar-27 06:26N 21°41' E 072°31'0 0.0
2018-Mar-27 05:44N 21°41' E 072°31'0 0.0
2018-Mar-27 05:20N 21°41' E 072°31'0 0.0
2018-Mar-27 04:56N 21°41' E 072°31'0 0.0
2018-Mar-27 04:26N 21°41' E 072°31'0 0.0
2018-Mar-27 03:50N 21°41' E 072°31'0 0.0
2018-Mar-27 03:26N 21°41' E 072°31'0 0.0
2018-Mar-27 02:56N 21°41' E 072°31'0 0.0
2018-Mar-27 02:26N 21°41' E 072°31'0 0.0
2018-Mar-27 01:56N 21°41' E 072°31'0 0.0
2018-Mar-27 01:26N 21°41' E 072°31'0 0.0
2018-Mar-27 00:56N 21°41' E 072°31'0 0.0
2018-Mar-27 00:26N 21°41' E 072°31'0 0.0
2018-Mar-26 23:44N 21°41' E 072°31'0 0.0
2018-Mar-26 23:14N 21°41' E 072°31'0 0.0
2018-Mar-26 22:56N 21°41' E 072°31'0 0.0
2018-Mar-26 21:08N 21°41' E 072°31'0 0.0
2018-Mar-26 20:56N 21°41' E 072°31'0 0.0
2018-Mar-26 20:26N 21°41' E 072°31'0 0.0
2018-Mar-26 19:44N 21°41' E 072°31'0 0.0
2018-Mar-26 19:20N 21°41' E 072°31'0 0.0
2018-Mar-26 06:44N 21°41' E 072°31'0 0.0
2018-Mar-26 03:50N 21°41' E 072°31'0 0.0
2018-Mar-25 15:14N 21°41' E 072°31'0 0.0
2018-Mar-25 14:44N 21°41' E 072°31'0 0.0
2018-Mar-25 14:14N 21°41' E 072°31'0 0.0
2018-Mar-25 13:50N 21°41' E 072°31'0 0.0
2018-Mar-25 13:08N 21°41' E 072°31'0 0.0
2018-Mar-25 12:56N 21°41' E 072°31'0 0.0
2018-Mar-25 12:26N 21°41' E 072°31'0 0.0
2018-Mar-25 11:56N 21°41' E 072°31'0 0.0
2018-Mar-25 11:20N 21°41' E 072°31'0 0.0
2018-Mar-25 10:56N 21°41' E 072°31'0 0.0
2018-Mar-25 09:56N 21°41' E 072°31'0 0.0
2018-Mar-25 08:20N 21°41' E 072°31'0 0.0
2018-Mar-25 04:02N 21°41' E 072°31'0 0.2
2018-Mar-25 04:00N 21°41' E 072°31'0 0.7
2018-Mar-25 03:30N 21°41' E 072°30'1 2.7
2018-Mar-25 03:00N 21°41' E 072°29'5 8.9
2018-Mar-25 02:29N 21°37' E 072°28'3 6.7
2018-Mar-25 02:00N 21°34' E 072°27'3 6.6
2018-Mar-25 01:31N 21°30' E 072°26'4 7.7
2018-Mar-25 00:59N 21°26' E 072°26'5 9.9
2018-Mar-25 00:30N 21°23' E 072°22'4 8.2
2018-Mar-25 00:00N 21°20' E 072°20'510.1
2018-Mar-24 23:30N 21°15' E 072°18'510.2
2018-Mar-24 23:00N 21°10' E 072°16'4 9.0
2018-Mar-24 22:30N 21°06' E 072°13'5 8.9
2018-Mar-24 22:00N 21°02' E 072°11'5 9.5
2018-Mar-24 21:30N 20°58' E 072°09'5 9.5
2018-Mar-24 20:58N 20°53' E 072°08'4 9.6
2018-Mar-24 20:30N 20°49' E 072°07'510.0
2018-Mar-24 20:01N 20°45' E 072°04'5 9.9
2018-Mar-24 19:30N 20°40' E 072°01'5 9.8
2018-Mar-24 19:00N 20°36' E 071°58'510.1
2018-Mar-24 18:30N 20°34' E 071°53'510.4
2018-Mar-24 18:01N 20°32' E 071°48'610.8
2018-Mar-24 17:30N 20°31' E 071°42'15 9.6
2018-Mar-24 15:53N 20°16' E 071°37'512.2
2018-Mar-24 15:30N 20°12' E 071°37'510.2
2018-Mar-24 15:00N 20°08' E 071°41'612.0
2018-Mar-24 14:31N 20°06' E 071°47'611.6
2018-Mar-24 14:00N 20°04' E 071°53'611.6
2018-Mar-24 13:30N 20°03' E 071°59'611.7
2018-Mar-24 13:00N 20°01' E 072°05'611.5
2018-Mar-24 12:30N 19°59' E 072°11'611.4
2018-Mar-24 11:59N 19°57' E 072°17'511.4
2018-Mar-24 11:30N 19°53' E 072°21'714.2
2018-Mar-24 11:00N 19°46' E 072°22'714.0
2018-Mar-24 10:30N 19°39' E 072°23'713.8
2018-Mar-24 09:58N 19°32' E 072°24'613.7
2018-Mar-24 09:30N 19°26' E 072°25'713.4
2018-Mar-24 09:00N 19°19' E 072°27'713.1
2018-Mar-24 08:26N 19°12' E 072°28'612.9
2018-Mar-24 08:00N 19°07' E 072°29'712.8
2018-Mar-24 07:30N 19°00' E 072°31'712.6
2018-Mar-24 06:58N 18°54' E 072°33'1510.8
2018-Mar-24 05:35N 18°39' E 072°32'112.3
2018-Mar-24 05:30N 18°38' E 072°31'612.3
2018-Mar-24 05:00N 18°32' E 072°30'712.1
2018-Mar-24 04:28N 18°25' E 072°31'712.1
2018-Mar-24 03:52N 18°18' E 072°33'512.2
2018-Mar-24 03:30N 18°14' E 072°34'2812.2
2018-Mar-24 01:09N 17°46' E 072°38'212.2
2018-Mar-24 00:59N 17°44' E 072°39'611.8
2018-Mar-24 00:30N 17°38' E 072°40'2512.3
2018-Mar-23 22:26N 17°14' E 072°47'  

Dump ship's entire track history